createdAt,value
2017-11-01T00:09:40.570Z,9.1
2017-11-01T00:20:26.091Z,9.1
2017-11-01T00:30:37.384Z,9.1
2017-11-01T00:40:51.422Z,9.2
2017-11-01T00:51:04.943Z,9.2
2017-11-01T01:01:16.820Z,9.2
2017-11-01T01:12:01.784Z,9.3
2017-11-01T01:22:14.964Z,9.2
2017-11-01T01:32:28.617Z,9.3
2017-11-01T01:42:42.399Z,9.3
2017-11-01T01:52:55.652Z,9.3
2017-11-01T02:03:09.537Z,9.4
2017-11-01T02:13:23.200Z,9.4
2017-11-01T02:24:07.958Z,9.4
2017-11-01T02:34:19.315Z,9.4
2017-11-01T02:44:33.549Z,9.5
2017-11-01T02:54:48.052Z,9.5
2017-11-01T03:05:00.271Z,9.5
2017-11-01T03:15:14.167Z,9.5
2017-11-01T03:25:27.395Z,9.5
2017-11-01T03:36:14.989Z,9.6
2017-11-01T03:46:28.977Z,9.6
2017-11-01T03:57:20.307Z,9.7
2017-11-01T04:08:05.837Z,9.7
2017-11-01T04:18:53.900Z,9.7
2017-11-01T04:29:39.189Z,9.8
2017-11-01T04:39:52.722Z,9.8
2017-11-01T04:50:37.189Z,9.8
2017-11-01T05:01:24.458Z,9.9
2017-11-01T05:11:39.050Z,9.8
2017-11-01T05:21:52.839Z,9.9
2017-11-01T05:32:37.353Z,9.9
2017-11-01T05:42:50.833Z,9.9
2017-11-01T05:53:04.137Z,9.9
2017-11-01T06:03:18.556Z,9.9
2017-11-01T06:13:30.619Z,9.9
2017-11-01T06:23:44.849Z,9.9
2017-11-01T06:33:59.674Z,10.0
2017-11-01T06:44:13.089Z,10.0
2017-11-01T06:55:01.624Z,10.0
2017-11-01T07:05:15.244Z,10.0
2017-11-01T07:15:28.673Z,10.0
2017-11-01T07:25:42.707Z,10.1
2017-11-01T07:36:27.535Z,10.1
2017-11-01T07:47:14.028Z,10.1
2017-11-01T07:57:58.942Z,10.2
2017-11-01T08:08:43.644Z,10.3
2017-11-01T08:19:29.498Z,10.4
2017-11-01T08:29:43.553Z,10.4
2017-11-01T08:39:57.881Z,10.4
2017-11-01T08:50:11.103Z,10.5
2017-11-01T09:00:25.139Z,10.5
2017-11-01T09:10:38.534Z,10.6
2017-11-01T09:20:54.656Z,10.7
2017-11-01T09:31:08.982Z,10.8
2017-11-01T09:41:23.291Z,10.8
2017-11-01T09:51:37.343Z,10.9
2017-11-01T10:01:48.396Z,11.0
2017-11-01T10:12:02.711Z,11.1
2017-11-01T10:22:17.514Z,11.2
2017-11-01T10:32:31.381Z,11.3
2017-11-01T10:42:45.213Z,11.4
2017-11-01T10:52:58.451Z,11.4
2017-11-01T11:03:44.092Z,11.7
2017-11-01T11:13:57.451Z,11.7
2017-11-01T11:24:12.065Z,11.9
2017-11-01T11:34:27.130Z,12.0
2017-11-01T11:44:41.413Z,12.0
2017-11-01T11:54:55.443Z,12.2
2017-11-01T12:05:10.940Z,12.3
2017-11-01T12:15:25.079Z,12.3
2017-11-01T12:26:10.368Z,12.4
2017-11-01T12:36:24.167Z,12.4
2017-11-01T12:46:38.125Z,12.6
2017-11-01T12:56:53.876Z,12.7
2017-11-01T13:07:08.794Z,12.8
2017-11-01T13:17:23.078Z,12.9
2017-11-01T13:27:37.162Z,13.1
2017-11-01T13:37:52.406Z,13.3
2017-11-01T13:48:06.494Z,13.3
2017-11-01T13:58:51.088Z,13.4
2017-11-01T14:09:04.776Z,13.4
2017-11-01T14:19:19.201Z,13.4
2017-11-01T14:29:36.767Z,13.4
2017-11-01T14:40:02.179Z,13.5
2017-11-01T14:50:15.364Z,13.5
2017-11-01T15:00:29.769Z,13.4
2017-11-01T15:11:14.941Z,13.1
2017-11-01T15:21:29.551Z,13.1
2017-11-01T15:44:36.406Z,12.9
2017-11-01T15:54:50.742Z,12.7
2017-11-01T16:05:04.668Z,12.5
2017-11-01T16:15:19.039Z,12.4
2017-11-01T16:25:33.264Z,12.2
2017-11-01T16:35:47.715Z,12.1
2017-11-01T16:46:46.655Z,11.8
2017-11-01T16:57:00.572Z,11.8
2017-11-01T17:19:46.392Z,11.6
2017-11-01T17:31:32.340Z,11.3
2017-11-01T17:42:17.956Z,11.2
2017-11-01T17:53:04.759Z,11.2
2017-11-01T18:03:19.834Z,11.2
2017-11-01T18:14:19.082Z,11.1
2017-11-01T18:25:23.462Z,11.0
2017-11-01T18:35:38.755Z,11.0
2017-11-01T18:45:54.661Z,10.9
2017-11-01T18:56:41.299Z,10.9
2017-11-01T19:06:56.486Z,10.9
2017-11-01T19:18:02.405Z,10.8
2017-11-01T19:28:16.814Z,10.8
2017-11-01T19:38:32.319Z,10.8
2017-11-01T19:48:46.446Z,10.7
2017-11-01T19:59:35.579Z,10.7
2017-11-01T20:09:50.003Z,10.6
2017-11-01T20:20:35.542Z,10.6
2017-11-01T20:30:49.609Z,10.6
2017-11-01T20:41:56.871Z,10.5
2017-11-01T20:52:41.361Z,10.5
2017-11-01T21:02:59.908Z,10.5
2017-11-01T21:13:50.764Z,10.4
2017-11-01T21:24:57.733Z,10.3
2017-11-01T21:35:13.968Z,10.3
2017-11-01T21:47:44.921Z,10.3
2017-11-01T21:58:06.112Z,10.3
2017-11-01T22:08:28.176Z,10.3
2017-11-01T22:18:41.310Z,10.2
2017-11-01T22:29:53.604Z,10.2
2017-11-01T22:40:05.188Z,10.2
2017-11-01T23:03:34.106Z,10.2
2017-11-01T23:14:12.764Z,10.2
2017-11-01T23:25:02.545Z,10.3
2017-11-01T23:36:26.937Z,10.3
2017-11-01T23:48:38.552Z,10.3
